Time;durP1;ratioP1;P1;durP2;ratioP2;P2;SDS_P1;SDS_P2;PMS_P1;PMS_P2;Temp;Humidity;BMP_temperature;BMP_pressure;BME280_temperature;BME280_humidity;BME280_pressure;Samples;Min_cycle;Max_cycle;Signal;HPM_P1;HPM_P2
2021/11/21 00:01:31;;;;;;;15.07;6.95;;;9.20;99.90;;;;;;5047342;28;20041;-83
2021/11/21 00:04:03;;;;;;;15.73;5.80;;;10.70;99.90;;;;;;5051886;28;20053;-82
2021/11/21 00:06:32;;;;;;;15.88;8.65;;;10.10;99.90;;;;;;5048359;28;20047;-83
2021/11/21 00:09:10;;;;;;;12.98;5.82;;;10.20;99.90;;;;;;5029301;28;20041;-83
2021/11/21 00:11:42;;;;;;;14.88;7.57;;;9.10;99.90;;;;;;5048070;28;20045;-84
2021/11/21 00:14:21;;;;;;;13.38;7.32;;;11.00;99.90;;;;;;5043329;28;20049;-85
2021/11/21 00:17:12;;;;;;;11.40;5.30;;;10.20;99.90;;;;;;5069034;28;20068;-84
2021/11/21 00:19:50;;;;;;;21.00;7.95;;;10.20;99.90;;;;;;5035153;28;20063;-84
2021/11/21 00:22:34;;;;;;;17.27;7.25;;;10.20;99.90;;;;;;5013890;28;20048;-83
2021/11/21 00:25:15;;;;;;;19.23;8.30;;;10.10;99.90;;;;;;5047304;28;20048;-84
2021/11/21 00:28:05;;;;;;;16.23;6.75;;;11.20;99.90;;;;;;5044424;28;20061;-84
2021/11/21 00:30:59;;;;;;;14.77;6.70;;;10.10;99.90;;;;;;5030141;28;20068;-84
2021/11/21 00:34:13;;;;;;;15.88;7.03;;;10.10;99.90;;;;;;5038519;28;20055;-84
2021/11/21 00:37:11;;;;;;;14.05;6.05;;;8.90;99.90;;;;;;5037360;28;20046;-83
2021/11/21 00:39:53;;;;;;;15.45;6.22;;;10.20;99.90;;;;;;5049508;28;20037;-84
2021/11/21 00:42:30;;;;;;;13.27;6.25;;;9.40;99.90;;;;;;5049924;28;20045;-84
2021/11/21 00:45:12;;;;;;;31.55;6.75;;;10.10;99.90;;;;;;5032948;28;20050;-84
2021/11/21 00:47:43;;;;;;;14.25;5.85;;;10.40;99.90;;;;;;5020233;28;20053;-82
2021/11/21 00:50:15;;;;;;;18.48;7.00;;;10.10;99.90;;;;;;5045606;28;20616;-82
2021/11/21 00:52:46;;;;;;;15.75;6.47;;;10.20;99.90;;;;;;5028390;28;20059;-82
2021/11/21 00:55:17;;;;;;;22.48;7.43;;;10.10;99.90;;;;;;5044139;28;20049;-83
2021/11/21 00:57:46;;;;;;;13.60;7.03;;;10.10;99.90;;;;;;5044136;28;20060;-82
2021/11/21 01:00:16;;;;;;;14.85;6.15;;;10.10;99.90;;;;;;5047974;28;20049;-82
2021/11/21 01:02:47;;;;;;;9.20;5.45;;;10.10;99.90;;;;;;5016390;28;20064;-83
2021/11/21 01:05:15;;;;;;;15.43;6.78;;;10.00;99.90;;;;;;5027324;28;20057;-83
2021/11/21 01:07:43;;;;;;;16.85;6.00;;;10.10;99.90;;;;;;5011481;28;20042;-82
2021/11/21 01:10:16;;;;;;;13.30;5.90;;;10.20;99.90;;;;;;5046912;28;20042;-83
2021/11/21 01:12:46;;;;;;;10.98;5.40;;;10.00;99.90;;;;;;5044542;28;20064;-82
2021/11/21 01:15:19;;;;;;;13.27;5.90;;;10.30;99.90;;;;;;5045402;28;20038;-82
2021/11/21 01:17:53;;;;;;;11.07;5.60;;;10.00;99.90;;;;;;5024976;28;20065;-83
2021/11/21 01:20:25;;;;;;;14.15;6.32;;;10.00;99.90;;;;;;5027612;28;20050;-83
2021/11/21 01:22:58;;;;;;;11.65;5.78;;;9.70;99.90;;;;;;5008889;28;20050;-83
2021/11/21 01:25:29;;;;;;;;;;;10.00;99.90;;;;;;5025675;28;20523;-82
2021/11/21 01:28:02;;;;;;;13.77;5.63;;;10.00;99.90;;;;;;5019596;28;19922;-83
2021/11/21 01:30:36;;;;;;;14.23;6.30;;;10.20;99.90;;;;;;5039906;28;20575;-82
2021/11/21 01:33:16;;;;;;;14.70;5.40;;;9.90;99.90;;;;;;5041898;28;20062;-82
2021/11/21 01:35:59;;;;;;;14.38;6.80;;;10.00;99.90;;;;;;5042574;28;20155;-82
2021/11/21 01:38:28;;;;;;;13.48;6.60;;;8.70;99.90;;;;;;5005327;28;20054;-82
2021/11/21 01:40:57;;;;;;;16.67;6.25;;;10.00;99.90;;;;;;5028640;28;20042;-82
2021/11/21 01:43:35;;;;;;;16.73;7.15;;;10.00;99.90;;;;;;5010710;28;20454;-82
2021/11/21 01:46:08;;;;;;;11.68;5.35;;;10.00;99.90;;;;;;5066292;28;20041;-82
2021/11/21 01:48:51;;;;;;;13.38;5.88;;;10.00;99.90;;;;;;5067571;28;20052;-83
2021/11/21 01:51:39;;;;;;;11.77;5.85;;;10.00;99.90;;;;;;5038602;28;20048;-83
2021/11/21 01:54:08;;;;;;;8.85;4.43;;;10.00;99.90;;;;;;5048285;28;20045;-82
2021/11/21 01:56:47;;;;;;;9.75;4.82;;;10.00;99.90;;;;;;5046490;28;20048;-82
2021/11/21 01:59:18;;;;;;;6.22;3.75;;;10.00;99.90;;;;;;5030113;28;20551;-82
2021/11/21 02:01:56;;;;;;;9.77;3.83;;;10.00;99.90;;;;;;5046857;28;20045;-82
2021/11/21 02:04:30;;;;;;;7.85;3.05;;;10.00;99.90;;;;;;5037748;28;20055;-82
2021/11/21 02:07:01;;;;;;;7.78;3.22;;;10.00;99.90;;;;;;5051039;28;20075;-82
2021/11/21 02:09:36;;;;;;;16.30;3.47;;;10.00;99.90;;;;;;5086785;28;20056;-82
2021/11/21 02:12:08;;;;;;;7.70;3.38;;;10.00;99.90;;;;;;5056542;28;20062;-82
2021/11/21 02:14:41;;;;;;;10.18;4.35;;;10.00;99.90;;;;;;5051213;28;20060;-84
2021/11/21 02:17:15;;;;;;;9.15;2.92;;;10.00;99.90;;;;;;5068795;28;20040;-83
2021/11/21 02:19:47;;;;;;;11.88;4.53;;;10.00;99.90;;;;;;5047343;28;20055;-83
2021/11/21 02:22:23;;;;;;;8.70;3.53;;;10.00;99.90;;;;;;5081640;28;20048;-82
2021/11/21 02:24:54;;;;;;;8.25;3.00;;;10.00;99.90;;;;;;5062870;28;20052;-82
2021/11/21 02:27:30;;;;;;;6.38;2.90;;;10.00;99.90;;;;;;5065999;28;20049;-83
2021/11/21 02:29:59;;;;;;;11.10;3.25;;;10.10;99.90;;;;;;5051153;28;20055;-83
2021/11/21 02:32:50;;;;;;;13.48;2.97;;;10.00;99.90;;;;;;5050782;28;20232;-83
2021/11/21 02:35:33;;;;;;;6.55;3.22;;;10.00;99.90;;;;;;5049718;28;20040;-82
2021/11/21 02:38:02;;;;;;;7.43;4.38;;;10.00;99.90;;;;;;5053936;28;20048;-83
2021/11/21 02:40:31;;;;;;;12.73;3.45;;;10.10;99.90;;;;;;5068398;28;20054;-83
2021/11/21 02:43:26;;;;;;;12.68;3.15;;;10.00;99.90;;;;;;5053016;28;20048;-83
2021/11/21 02:45:56;;;;;;;6.68;2.75;;;10.00;99.90;;;;;;5049811;28;20056;-83
2021/11/21 02:48:34;;;;;;;9.80;4.78;;;9.90;99.90;;;;;;5085182;28;20055;-82
2021/11/21 02:51:08;;;;;;;11.67;3.00;;;10.00;99.90;;;;;;5034179;28;20243;-83
2021/11/21 02:53:42;;;;;;;9.52;3.65;;;9.90;99.90;;;;;;5065279;28;20304;-83
2021/11/21 02:56:14;;;;;;;13.88;3.20;;;9.90;99.90;;;;;;5050717;28;20044;-82
2021/11/21 02:58:47;;;;;;;;;;;9.80;99.90;;;;;;5067059;28;20049;-82
2021/11/21 03:01:29;;;;;;;7.97;2.83;;;9.90;99.90;;;;;;5041363;28;19924;-82
2021/11/21 03:04:00;;;;;;;13.82;3.70;;;9.70;99.90;;;;;;5071720;28;20061;-83
2021/11/21 03:06:38;;;;;;;11.10;3.08;;;9.80;99.90;;;;;;5050759;28;20065;-83
2021/11/21 03:09:25;;;;;;;12.02;3.53;;;9.70;99.90;;;;;;5067090;28;20057;-82
2021/11/21 03:12:04;;;;;;;12.50;3.05;;;9.60;99.90;;;;;;5066001;28;20053;-84
2021/11/21 03:14:37;;;;;;;12.77;4.50;;;9.50;99.90;;;;;;5046774;28;20071;-83
2021/11/21 03:17:10;;;;;;;8.02;2.70;;;9.50;99.90;;;;;;5037200;28;20357;-83
2021/11/21 03:19:41;;;;;;;16.35;4.13;;;9.40;99.90;;;;;;5052921;28;20052;-82
2021/11/21 03:22:14;;;;;;;10.27;2.90;;;9.30;99.90;;;;;;5070819;28;20052;-83
2021/11/21 03:24:45;;;;;;;13.70;3.20;;;8.70;99.90;;;;;;5052458;28;20123;-82
2021/11/21 03:27:17;;;;;;;13.75;3.15;;;9.20;99.90;;;;;;5067416;28;20055;-83
2021/11/21 03:29:45;;;;;;;12.60;2.80;;;9.20;99.90;;;;;;5067212;28;20666;-83
2021/11/21 03:32:17;;;;;;;10.25;2.85;;;9.10;99.90;;;;;;5050622;28;20424;-83
2021/11/21 03:34:48;;;;;;;9.05;2.25;;;8.80;99.90;;;;;;5067560;28;20074;-82
2021/11/21 03:37:21;;;;;;;7.82;3.10;;;9.10;99.90;;;;;;5050615;28;20053;-83
2021/11/21 03:39:54;;;;;;;12.82;3.28;;;9.00;99.90;;;;;;5087602;28;20041;-83
2021/11/21 03:42:27;;;;;;;7.65;3.30;;;8.90;99.90;;;;;;5068712;28;20045;-82
2021/11/21 03:45:11;;;;;;;9.95;2.70;;;8.90;99.90;;;;;;5053686;28;20048;-82
2021/11/21 03:47:41;;;;;;;15.63;2.97;;;8.70;99.90;;;;;;5085335;28;20059;-83
2021/11/21 03:50:20;;;;;;;12.93;3.25;;;8.70;99.90;;;;;;5067191;28;20044;-82
2021/11/21 03:52:50;;;;;;;8.30;3.45;;;8.80;99.90;;;;;;5066742;28;20056;-83
2021/11/21 03:55:28;;;;;;;9.68;4.25;;;8.60;99.90;;;;;;5083360;28;20048;-82
2021/11/21 03:58:06;;;;;;;10.02;3.28;;;8.80;99.90;;;;;;5052807;28;20040;-82
2021/11/21 04:00:45;;;;;;;17.55;2.78;;;8.50;99.90;;;;;;5087441;28;20044;-82
2021/11/21 04:03:19;;;;;;;21.38;4.18;;;8.50;99.90;;;;;;5053401;28;20067;-83
2021/11/21 04:06:02;;;;;;;;;;;;;;;;;;;;;
2021/11/21 04:08:47;;;;;;;8.95;3.28;;;7.80;99.90;;;;;;5072330;28;20051;-83
2021/11/21 04:11:17;;;;;;;10.50;2.97;;;8.40;99.90;;;;;;5071384;28;20041;-82
2021/11/21 04:13:50;;;;;;;7.20;3.20;;;8.40;99.90;;;;;;5070088;28;20041;-82
2021/11/21 04:16:22;;;;;;;16.55;3.40;;;8.90;99.90;;;;;;5072113;28;20056;-82
2021/11/21 04:18:57;;;;;;;18.55;4.63;;;8.30;99.90;;;;;;5056538;28;20469;-83
2021/11/21 04:21:26;;;;;;;22.05;3.40;;;8.20;99.90;;;;;;5071230;28;20063;-82
2021/11/21 04:23:58;;;;;;;9.25;2.83;;;8.20;99.90;;;;;;5071875;28;20040;-82
2021/11/21 04:26:33;;;;;;;11.82;4.25;;;8.30;99.90;;;;;;5088623;28;20052;-83
2021/11/21 04:29:03;;;;;;;6.75;2.88;;;8.40;99.90;;;;;;5053234;28;20537;-83
2021/11/21 04:31:41;;;;;;;15.50;4.78;;;8.00;99.90;;;;;;5069956;28;20044;-83
2021/11/21 04:34:16;;;;;;;14.25;3.72;;;8.00;99.90;;;;;;5061128;28;20050;-83
2021/11/21 04:36:56;;;;;;;;;;;;;;;;;;;;;
2021/11/21 04:39:32;;;;;;;17.13;4.68;;;8.00;99.90;;;;;;5055458;28;20052;-83
2021/11/21 04:42:03;;;;;;;13.90;4.43;;;7.90;99.90;;;;;;5087665;28;20045;-83
2021/11/21 04:44:42;;;;;;;;;;;;;;;;;;;;;
2021/11/21 04:47:32;;;;;;;11.68;3.38;;;7.90;99.90;;;;;;5042008;28;20548;-82
2021/11/21 04:50:19;;;;;;;9.60;3.10;;;7.70;99.90;;;;;;5046502;28;20047;-83
2021/11/21 04:52:53;;;;;;;12.18;5.18;;;7.80;99.90;;;;;;5046123;28;20049;-82
2021/11/21 04:55:21;;;;;;;16.65;5.55;;;6.40;99.90;;;;;;5046161;28;20415;-83
2021/11/21 04:57:54;;;;;;;17.98;4.10;;;7.30;99.90;;;;;;5048027;28;20045;-83
2021/11/21 05:00:36;;;;;;;6.43;3.33;;;7.70;99.90;;;;;;5046479;28;20081;-82
2021/11/21 05:03:08;;;;;;;10.27;3.60;;;7.60;99.90;;;;;;5031012;28;20049;-83
2021/11/21 05:05:40;;;;;;;11.18;2.78;;;7.50;99.90;;;;;;5016426;28;20046;-82
2021/11/21 05:08:09;;;;;;;14.55;5.20;;;7.50;99.90;;;;;;5048704;28;20057;-83
2021/11/21 05:10:42;;;;;;;11.65;3.53;;;7.40;99.90;;;;;;5033260;28;20053;-83
2021/11/21 05:13:15;;;;;;;9.85;3.70;;;7.40;99.90;;;;;;5034749;28;20056;-83
2021/11/21 05:15:49;;;;;;;16.55;7.13;;;7.30;99.90;;;;;;5018725;28;20060;-82
2021/11/21 05:18:28;;;;;;;11.68;3.90;;;7.40;99.90;;;;;;5046494;28;20049;-83
2021/11/21 05:21:18;;;;;;;11.77;3.15;;;7.30;99.90;;;;;;5032709;28;20060;-83
2021/11/21 05:23:50;;;;;;;12.20;3.92;;;7.30;99.90;;;;;;5041189;28;20045;-83
2021/11/21 05:26:27;;;;;;;23.58;5.25;;;7.20;99.90;;;;;;5027312;28;20056;-82
2021/11/21 05:29:09;;;;;;;13.73;3.00;;;7.20;99.90;;;;;;5050162;28;20051;-83
2021/11/21 05:31:41;;;;;;;14.65;6.55;;;7.20;99.90;;;;;;5049183;28;20050;-82
2021/11/21 05:34:15;;;;;;;18.00;4.00;;;8.00;99.90;;;;;;5050342;28;20052;-82
2021/11/21 05:36:56;;;;;;;12.02;3.67;;;7.40;99.90;;;;;;5034446;28;20050;-82
2021/11/21 05:39:29;;;;;;;14.80;2.92;;;7.10;99.90;;;;;;5031635;28;20041;-82
2021/11/21 05:42:02;;;;;;;25.50;5.22;;;7.10;99.90;;;;;;5026260;28;20068;-82
2021/11/21 05:44:33;;;;;;;6.18;2.40;;;7.20;99.90;;;;;;5026609;28;20046;-82
2021/11/21 05:47:10;;;;;;;16.83;3.47;;;7.20;99.90;;;;;;5041274;28;20063;-83
2021/11/21 05:49:42;;;;;;;10.93;2.97;;;7.10;99.90;;;;;;5027255;28;20048;-82
2021/11/21 05:52:10;;;;;;;11.05;3.53;;;7.10;99.90;;;;;;5039237;28;20054;-82
2021/11/21 05:54:45;;;;;;;14.82;3.80;;;7.00;99.90;;;;;;5026184;28;20049;-81
2021/11/21 05:57:30;;;;;;;;;;;;;;;;;;;;;
2021/11/21 06:00:28;;;;;;;13.93;6.05;;;5.60;99.90;;;;;;5026140;28;20079;-83
2021/11/21 06:02:59;;;;;;;16.58;3.75;;;6.90;99.90;;;;;;5027385;28;20049;-83
2021/11/21 06:06:05;;;;;;;13.68;3.00;;;6.90;99.90;;;;;;5040283;28;20392;-82
2021/11/21 06:08:36;;;;;;;11.27;4.65;;;7.00;99.90;;;;;;5046797;28;20235;-82
2021/11/21 06:11:07;;;;;;;;;;;6.90;99.90;;;;;;5029729;28;20087;-82
2021/11/21 06:13:38;;;;;;;15.30;6.28;;;6.90;99.90;;;;;;5044623;28;19939;-83
2021/11/21 06:16:09;;;;;;;26.95;5.60;;;6.80;99.90;;;;;;5043012;28;20734;-83
2021/11/21 06:18:48;;;;;;;21.83;7.45;;;6.80;99.90;;;;;;5011771;28;20473;-83
2021/11/21 06:21:16;;;;;;;11.45;3.38;;;6.80;99.90;;;;;;5026717;28;20049;-83
2021/11/21 06:23:49;;;;;;;29.35;4.90;;;6.80;99.90;;;;;;5054872;28;20049;-83
2021/11/21 06:26:21;;;;;;;5.60;2.78;;;5.60;99.90;;;;;;5040667;28;20522;-82
2021/11/21 06:28:59;;;;;;;10.27;2.58;;;6.70;99.90;;;;;;5012113;28;20049;-83
2021/11/21 06:31:29;;;;;;;;;;;6.70;99.90;;;;;;5043012;28;20049;-83
2021/11/21 06:34:00;;;;;;;13.75;3.90;;;6.60;99.90;;;;;;5028469;28;19928;-82
2021/11/21 06:36:32;;;;;;;10.65;2.55;;;8.40;99.90;;;;;;5045632;28;20037;-82
2021/11/21 06:39:11;;;;;;;9.00;2.35;;;6.60;99.90;;;;;;5029219;28;20054;-82
2021/11/21 06:41:42;;;;;;;20.80;4.32;;;6.70;99.90;;;;;;5029740;28;20058;-83
2021/11/21 06:44:10;;;;;;;8.27;3.30;;;6.90;99.90;;;;;;5026707;28;20054;-83
2021/11/21 06:46:50;;;;;;;19.42;3.85;;;6.50;99.90;;;;;;5027349;28;20046;-83
2021/11/21 06:49:24;;;;;;;7.55;2.78;;;6.70;99.90;;;;;;5044470;28;20050;-82
2021/11/21 06:52:18;;;;;;;16.73;4.30;;;7.00;99.90;;;;;;5029138;28;20140;-82
2021/11/21 06:54:52;;;;;;;7.80;3.22;;;6.70;99.90;;;;;;5043627;28;20053;-83
2021/11/21 06:57:22;;;;;;;8.30;4.20;;;6.40;99.90;;;;;;5046301;28;20052;-83
2021/11/21 06:59:52;;;;;;;7.63;3.55;;;6.30;99.90;;;;;;5031374;28;20053;-82
2021/11/21 07:02:24;;;;;;;8.48;3.90;;;6.30;99.90;;;;;;5046554;28;20053;-83
2021/11/21 07:04:55;;;;;;;6.05;2.90;;;6.20;99.90;;;;;;5010551;28;20049;-83
2021/11/21 07:07:37;;;;;;;6.43;3.40;;;7.70;99.90;;;;;;5025944;28;20045;-83
2021/11/21 07:10:12;;;;;;;15.60;3.83;;;6.90;99.90;;;;;;5043640;28;20053;-82
2021/11/21 07:12:45;;;;;;;9.02;2.85;;;6.20;99.90;;;;;;5042089;28;20041;-83
2021/11/21 07:15:18;;;;;;;12.23;3.28;;;6.20;99.90;;;;;;5042297;28;20055;-82
2021/11/21 07:17:52;;;;;;;5.43;2.95;;;6.90;99.90;;;;;;5024768;28;20065;-83
2021/11/21 07:20:27;;;;;;;13.38;3.10;;;6.20;99.90;;;;;;5010800;28;20060;-82
2021/11/21 07:22:59;;;;;;;20.83;4.95;;;6.10;99.90;;;;;;5010154;28;20053;-83
2021/11/21 07:25:30;;;;;;;7.43;3.83;;;7.20;99.90;;;;;;5042443;28;20041;-83
2021/11/21 07:27:59;;;;;;;;;;;6.00;99.90;;;;;;5042717;28;20049;-83
2021/11/21 07:30:35;;;;;;;3.80;2.47;;;6.20;99.90;;;;;;5025374;28;19944;-83
2021/11/21 07:33:04;;;;;;;11.75;4.20;;;6.00;99.90;;;;;;5025612;28;20046;-83
2021/11/21 07:35:35;;;;;;;11.40;4.97;;;6.00;99.90;;;;;;5006356;28;20049;-83
2021/11/21 07:38:04;;;;;;;11.90;3.22;;;5.90;99.90;;;;;;5008956;28;20050;-83
2021/11/21 07:40:40;;;;;;;5.70;2.78;;;6.70;99.90;;;;;;5010176;28;20049;-83
2021/11/21 07:43:13;;;;;;;10.30;3.03;;;6.00;99.90;;;;;;5024220;28;20076;-82
2021/11/21 07:45:42;;;;;;;14.85;3.50;;;5.80;99.90;;;;;;5041580;28;20334;-83
2021/11/21 07:48:20;;;;;;;16.45;4.00;;;5.90;99.90;;;;;;5008773;28;20522;-83
2021/11/21 07:51:00;;;;;;;;;;;5.80;99.90;;;;;;5043644;28;20048;-82
2021/11/21 07:53:31;;;;;;;8.60;3.30;;;5.80;99.90;;;;;;5030957;28;19921;-83
2021/11/21 07:56:06;;;;;;;10.02;2.58;;;5.80;99.90;;;;;;5009564;28;20052;-83
2021/11/21 07:58:35;;;;;;;8.65;3.10;;;5.90;99.90;;;;;;5042289;28;20051;-83
2021/11/21 08:01:14;;;;;;;11.35;3.40;;;5.80;99.90;;;;;;5032707;28;20044;-83
2021/11/21 08:03:50;;;;;;;10.82;2.97;;;7.60;99.90;;;;;;5016152;28;20055;-83
2021/11/21 08:06:32;;;;;;;8.32;3.88;;;5.90;99.90;;;;;;5035329;28;20044;-83
2021/11/21 08:09:10;;;;;;;16.88;3.70;;;5.90;99.90;;;;;;5030661;28;20332;-82
2021/11/21 08:11:57;;;;;;;7.10;2.88;;;5.90;99.90;;;;;;5065075;28;20049;-84
2021/11/21 08:14:33;;;;;;;5.43;3.10;;;5.80;99.90;;;;;;5043334;28;20053;-83
2021/11/21 08:17:03;;;;;;;8.20;2.97;;;5.80;99.90;;;;;;5026816;28;20577;-83
2021/11/21 08:19:34;;;;;;;10.80;3.60;;;5.90;99.90;;;;;;5012384;28;20060;-82
2021/11/21 08:22:06;;;;;;;11.25;3.05;;;5.80;99.90;;;;;;5041653;28;20064;-83
2021/11/21 08:24:39;;;;;;;7.10;3.58;;;6.10;99.90;;;;;;5026493;28;20041;-82
2021/11/21 08:27:11;;;;;;;4.70;3.08;;;5.80;99.90;;;;;;5051050;28;20036;-82
2021/11/21 08:29:54;;;;;;;6.20;2.38;;;5.80;99.90;;;;;;5020935;28;20068;-83
2021/11/21 08:32:44;;;;;;;11.93;3.97;;;5.90;99.90;;;;;;5013034;28;20061;-83
2021/11/21 08:35:36;;;;;;;9.15;2.70;;;5.50;99.90;;;;;;5028107;28;20041;-83
2021/11/21 08:38:07;;;;;;;5.18;2.63;;;6.30;99.90;;;;;;5009688;28;20052;-83
2021/11/21 08:40:40;;;;;;;5.82;2.88;;;5.90;99.90;;;;;;5040961;28;20045;-83
2021/11/21 08:43:10;;;;;;;7.15;3.55;;;6.00;99.90;;;;;;5041586;28;20049;-82
2021/11/21 08:45:38;;;;;;;7.28;2.45;;;6.10;99.90;;;;;;5040871;28;20061;-83
2021/11/21 08:48:10;;;;;;;14.45;3.08;;;5.90;99.90;;;;;;5021494;28;20057;-83
2021/11/21 08:50:38;;;;;;;13.60;3.08;;;5.90;99.90;;;;;;5040679;28;20045;-83
2021/11/21 08:53:06;;;;;;;8.00;2.35;;;6.50;99.90;;;;;;5036664;28;20064;-83
2021/11/21 08:55:34;;;;;;;7.13;2.45;;;5.90;99.90;;;;;;5023131;28;20046;-83
2021/11/21 08:58:04;;;;;;;7.00;2.78;;;6.00;99.90;;;;;;5041279;28;20041;-82
2021/11/21 09:00:39;;;;;;;10.73;5.47;;;6.00;99.90;;;;;;5044507;28;20044;-83
2021/11/21 09:03:31;;;;;;;23.58;3.58;;;6.00;99.90;;;;;;5014640;28;20056;-85
2021/11/21 09:05:59;;;;;;;10.63;2.63;;;6.30;99.90;;;;;;4980194;28;20054;-86
2021/11/21 09:08:26;;;;;;;4.65;2.30;;;6.20;99.90;;;;;;4994846;28;20041;-87
2021/11/21 09:10:54;;;;;;;11.82;3.72;;;6.10;99.90;;;;;;5020635;28;20064;-85
2021/11/21 09:13:23;;;;;;;12.23;3.33;;;6.20;99.90;;;;;;5010814;28;20045;-86
2021/11/21 09:15:51;;;;;;;14.30;4.93;;;6.20;99.90;;;;;;5001521;28;20524;-85
2021/11/21 09:18:24;;;;;;;10.50;2.75;;;6.20;99.90;;;;;;5001517;28;20054;-89
2021/11/21 09:20:55;;;;;;;4.95;2.97;;;7.00;99.90;;;;;;5014644;28;20053;-86
2021/11/21 09:23:26;;;;;;;8.10;2.92;;;6.30;99.90;;;;;;5006124;28;20045;-87
2021/11/21 09:26:05;;;;;;;8.65;2.90;;;7.10;99.90;;;;;;5014355;28;20045;-88
2021/11/21 09:28:57;;;;;;;5.05;2.00;;;6.40;99.90;;;;;;5006398;28;20062;-86
2021/11/21 09:31:27;;;;;;;;;;;6.60;99.90;;;;;;5033370;28;20057;-86
2021/11/21 09:33:55;;;;;;;17.00;4.40;;;5.30;99.90;;;;;;5009144;28;19933;-88
2021/11/21 09:36:27;;;;;;;8.27;2.08;;;6.40;99.90;;;;;;5014176;28;20038;-85
2021/11/21 09:39:09;;;;;;;5.40;2.30;;;6.50;99.90;;;;;;5017875;28;20486;-86
2021/11/21 09:41:49;;;;;;;8.05;2.75;;;6.50;99.90;;;;;;5013718;28;20057;-86
2021/11/21 09:44:21;;;;;;;3.63;2.35;;;6.50;99.90;;;;;;5024812;28;20548;-85
2021/11/21 09:47:21;;;;;;;9.00;2.45;;;6.50;99.90;;;;;;5027705;28;20058;-86
2021/11/21 09:50:20;;;;;;;11.57;1.80;;;6.60;99.90;;;;;;5012551;28;20041;-86
2021/11/21 09:52:52;;;;;;;5.28;2.33;;;6.70;99.90;;;;;;5029216;28;20532;-86
2021/11/21 09:55:27;;;;;;;4.00;2.08;;;6.70;99.90;;;;;;5000744;28;20028;-88
2021/11/21 09:57:59;;;;;;;24.48;4.00;;;6.70;99.90;;;;;;5026943;28;20035;-85
2021/11/21 10:00:34;;;;;;;5.68;2.28;;;6.50;99.90;;;;;;4998873;28;20042;-84
2021/11/21 10:03:24;;;;;;;4.93;2.17;;;6.80;99.90;;;;;;4996853;28;20069;-86
2021/11/21 10:06:36;;;;;;;9.07;2.88;;;6.80;99.90;;;;;;4989786;28;20051;-87
2021/11/21 10:09:43;;;;;;;5.10;3.13;;;6.90;99.90;;;;;;4972893;28;20131;-87
2021/11/21 10:13:00;;;;;;;6.55;2.95;;;7.30;99.90;;;;;;4971432;28;20042;-86
2021/11/21 10:16:21;;;;;;;1.80;1.70;;;7.10;99.90;;;;;;4992301;28;20065;-85
2021/11/21 10:19:12;;;;;;;5.72;2.13;;;7.10;99.90;;;;;;5030288;28;20039;-86
2021/11/21 10:22:14;;;;;;;11.95;3.35;;;7.20;99.90;;;;;;4997339;28;20039;-87
2021/11/21 10:25:17;;;;;;;8.77;2.03;;;7.30;99.90;;;;;;5001745;28;20035;-87
2021/11/21 10:28:43;;;;;;;6.97;2.90;;;7.30;99.90;;;;;;4990344;28;20034;-86
2021/11/21 10:31:17;;;;;;;7.90;2.25;;;7.50;99.90;;;;;;5010342;28;20055;-86
2021/11/21 10:33:58;;;;;;;3.92;2.10;;;7.50;99.90;;;;;;4996469;28;20421;-86
2021/11/21 10:36:36;;;;;;;4.60;2.50;;;7.70;99.90;;;;;;4995109;28;20046;-86
2021/11/21 10:39:09;;;;;;;7.18;2.33;;;8.30;99.90;;;;;;4978626;28;20053;-87
2021/11/21 10:41:40;;;;;;;4.90;2.28;;;7.70;99.90;;;;;;4961038;28;20059;-87
2021/11/21 10:44:16;;;;;;;7.90;2.92;;;7.80;99.90;;;;;;4990740;28;20043;-86
2021/11/21 10:46:53;;;;;;;10.13;2.75;;;7.90;99.90;;;;;;4978219;28;20046;-86
2021/11/21 10:49:36;;;;;;;5.63;2.78;;;7.80;99.90;;;;;;4976729;28;20065;-87
2021/11/21 10:52:12;;;;;;;4.78;3.55;;;7.80;99.90;;;;;;4985829;28;20057;-86
2021/11/21 10:55:19;;;;;;;16.98;2.80;;;7.90;99.90;;;;;;4984182;28;20051;-87
2021/11/21 10:57:47;;;;;;;7.50;2.40;;;7.90;99.90;;;;;;4963512;28;20058;-87
2021/11/21 11:00:21;;;;;;;10.32;2.20;;;8.00;99.90;;;;;;4963313;28;20050;-86
2021/11/21 11:02:50;;;;;;;6.60;2.15;;;8.10;99.90;;;;;;4965813;28;20530;-85
2021/11/21 11:05:24;;;;;;;3.92;2.10;;;8.10;99.90;;;;;;4999979;28;20049;-86
2021/11/21 11:08:02;;;;;;;7.35;3.03;;;8.10;99.90;;;;;;4968428;28;20063;-87
2021/11/21 11:10:30;;;;;;;9.73;2.58;;;8.10;99.90;;;;;;4999111;28;20050;-87
2021/11/21 11:13:26;;;;;;;5.63;3.35;;;8.10;99.90;;;;;;4986651;28;20054;-89
2021/11/21 11:15:56;;;;;;;11.23;2.05;;;8.10;99.90;;;;;;5001414;28;20065;-86
2021/11/21 11:18:28;;;;;;;4.35;2.17;;;8.20;99.90;;;;;;4952098;28;20054;-87
2021/11/21 11:20:58;;;;;;;4.47;2.40;;;8.30;99.90;;;;;;4984568;28;20058;-87
2021/11/21 11:23:52;;;;;;;10.88;2.42;;;8.30;99.90;;;;;;5005543;28;20050;-86
2021/11/21 11:26:24;;;;;;;11.80;2.05;;;8.30;99.90;;;;;;5011423;28;20055;-87
2021/11/21 11:29:49;;;;;;;10.93;5.75;;;8.30;99.90;;;;;;4994544;28;20061;-87
2021/11/21 11:32:41;;;;;;;11.63;2.38;;;8.50;99.90;;;;;;5002165;28;20027;-86
2021/11/21 11:35:18;;;;;;;7.95;3.25;;;8.40;99.90;;;;;;5002380;28;20069;-88
2021/11/21 11:37:51;;;;;;;8.25;2.25;;;8.30;99.90;;;;;;5002394;28;20050;-87
2021/11/21 11:40:29;;;;;;;8.85;3.50;;;8.30;99.90;;;;;;4980072;28;20050;-85
2021/11/21 11:42:59;;;;;;;3.65;2.38;;;8.30;99.90;;;;;;4970415;28;20054;-88
2021/11/21 11:45:42;;;;;;;9.40;2.30;;;8.20;99.90;;;;;;4972683;28;20055;-87
2021/11/21 11:48:35;;;;;;;8.05;2.15;;;8.30;99.90;;;;;;5001215;28;20723;-89
2021/11/21 11:51:14;;;;;;;8.57;2.45;;;8.30;99.90;;;;;;4987748;28;20051;-85
2021/11/21 11:53:43;;;;;;;7.97;2.30;;;8.30;99.90;;;;;;5001591;28;20966;-86
2021/11/21 11:56:16;;;;;;;4.88;1.80;;;8.50;99.90;;;;;;5002708;28;20054;-87
2021/11/21 11:58:48;;;;;;;7.32;2.33;;;8.30;99.90;;;;;;4972040;28;20046;-87
2021/11/21 12:01:38;;;;;;;18.50;3.75;;;8.30;99.90;;;;;;4974706;28;20058;-87
2021/11/21 12:04:09;;;;;;;4.90;2.15;;;8.30;99.90;;;;;;4991006;28;20042;-87
2021/11/21 12:06:42;;;;;;;9.63;2.43;;;8.30;99.90;;;;;;4992430;28;20054;-86
2021/11/21 12:09:25;;;;;;;9.57;2.00;;;8.30;99.90;;;;;;4989444;28;20050;-86
2021/11/21 12:11:58;;;;;;;8.75;2.17;;;8.30;99.90;;;;;;4992106;28;20046;-85
2021/11/21 12:14:29;;;;;;;4.28;2.17;;;8.60;99.90;;;;;;4990961;28;20057;-91
2021/11/21 12:17:03;;;;;;;12.35;2.45;;;8.30;99.90;;;;;;4985820;28;20081;-87
2021/11/21 12:19:57;;;;;;;10.77;2.45;;;8.30;99.90;;;;;;4992324;28;20054;-87
2021/11/21 12:22:36;;;;;;;8.63;2.45;;;9.00;99.90;;;;;;4978509;28;20430;-83
2021/11/21 12:25:26;;;;;;;7.45;2.25;;;8.50;99.90;;;;;;4986552;28;20051;-88
2021/11/21 12:28:00;;;;;;;6.83;2.77;;;8.30;99.90;;;;;;5001203;28;20066;-86
2021/11/21 12:30:29;;;;;;;3.92;2.17;;;8.30;99.90;;;;;;4990884;28;20043;-86
2021/11/21 12:32:59;;;;;;;10.07;2.63;;;8.30;99.90;;;;;;4992594;28;20061;-87
2021/11/21 12:35:33;;;;;;;12.60;4.22;;;8.40;99.90;;;;;;4958470;28;20062;-87
2021/11/21 12:38:25;;;;;;;17.25;3.50;;;8.40;99.90;;;;;;4982704;28;20049;-89
2021/11/21 12:40:55;;;;;;;13.25;3.90;;;8.50;99.90;;;;;;5001964;28;20054;-85
2021/11/21 12:43:25;;;;;;;9.45;3.03;;;8.60;99.90;;;;;;5007090;28;20054;-87
2021/11/21 12:46:00;;;;;;;11.25;2.83;;;8.70;99.90;;;;;;4993482;28;20054;-88
2021/11/21 12:48:30;;;;;;;8.98;3.00;;;8.70;99.90;;;;;;4997753;28;20042;-86
2021/11/21 12:51:04;;;;;;;13.38;4.53;;;8.80;99.90;;;;;;5000209;28;20366;-87
2021/11/21 12:53:36;;;;;;;11.18;5.65;;;8.90;99.90;;;;;;4999318;28;20057;-88
2021/11/21 12:56:13;;;;;;;12.05;3.35;;;8.90;99.90;;;;;;5001438;28;20053;-85
2021/11/21 12:58:44;;;;;;;7.50;4.25;;;9.30;99.90;;;;;;4990780;28;20062;-85
2021/11/21 13:01:14;;;;;;;11.02;3.90;;;9.40;99.90;;;;;;5009279;28;20042;-85
2021/11/21 13:03:42;;;;;;;16.58;5.32;;;8.90;99.90;;;;;;5017303;28;20046;-87
2021/11/21 13:06:13;;;;;;;13.27;4.20;;;8.90;99.90;;;;;;4973776;28;20054;-86
2021/11/21 13:08:46;;;;;;;16.27;3.03;;;8.90;99.90;;;;;;4992511;28;20046;-84
2021/11/21 13:11:17;;;;;;;14.60;5.32;;;8.80;99.90;;;;;;4993479;28;20054;-89
2021/11/21 13:13:50;;;;;;;42.63;4.60;;;8.90;99.90;;;;;;4995014;28;20042;-83
2021/11/21 13:16:19;;;;;;;26.48;5.38;;;8.80;99.90;;;;;;4994500;28;20042;-86
2021/11/21 13:18:49;;;;;;;14.77;3.08;;;8.80;99.90;;;;;;4992391;28;20050;-84
2021/11/21 13:21:29;;;;;;;10.55;3.08;;;8.80;99.90;;;;;;4975349;28;20524;-85
2021/11/21 13:24:01;;;;;;;16.55;3.33;;;8.70;99.90;;;;;;4963905;28;20076;-85
2021/11/21 13:26:30;;;;;;;14.55;3.70;;;8.80;99.90;;;;;;4993457;28;20073;-85
2021/11/21 13:29:01;;;;;;;15.98;3.22;;;8.80;99.90;;;;;;4992718;28;20061;-85
2021/11/21 13:31:36;;;;;;;10.68;2.95;;;8.80;99.90;;;;;;4991814;28;20053;-84
2021/11/21 13:34:07;;;;;;;9.82;3.35;;;8.90;99.90;;;;;;4979742;28;20065;-83
2021/11/21 13:36:37;;;;;;;22.92;4.03;;;9.00;99.90;;;;;;4994579;28;20081;-83
2021/11/21 13:39:13;;;;;;;10.48;2.78;;;9.20;99.90;;;;;;5008471;28;20512;-83
2021/11/21 13:42:12;;;;;;;20.00;5.47;;;9.20;99.90;;;;;;5006072;28;20046;-85
2021/11/21 13:44:46;;;;;;;17.30;3.30;;;9.20;99.90;;;;;;4987019;28;20365;-83